AAY714 KLAS-KBZN
Flight info
| Callsign | AAY714 |
|---|---|
| Flight time | 1h 50m |
| Altitude | 32000 |
| Route | RATPK3 FRNCK WINEN/N0465F330 Q842 PICHO/N0463F340 Q842 PATIO MLD/N0465F330 SABAT LOSST1 |
| Aircraft | A320/M-SDE3FGHIRWY/LB1 |
Departure
| Time | 2026-05-06 17:05 |
|---|---|
| Airport | Harry Reid International Airport (KLAS) |
Arrival
| Time | 2026-05-06 18:56 |
|---|---|
| Airport | Bozeman Yellowstone International Airport (KBZN) |
| Time | Latitude | Longitude | Altitude | Speed | Heading |
|---|---|---|---|---|---|
| 2026-05-06 16:47 | 36.08048 | -115.13652 | 2118 ft | 0 kts | 47° |
| 2026-05-06 16:57 | 36.08044 | -115.13658 | 2117 ft | 4 kts | 49° |
| 2026-05-06 16:58 | 36.08027 | -115.13684 | 2121 ft | 4 kts | 58° |
| 2026-05-06 16:58 | 36.08015 | -115.13714 | 2120 ft | 4 kts | 78° |
| 2026-05-06 16:58 | 36.08016 | -115.13742 | 2118 ft | 3 kts | 129° |
| 2026-05-06 16:58 | 36.08018 | -115.13747 | 2121 ft | 2 kts | 135° |
| 2026-05-06 17:00 | 36.08004 | -115.13729 | 2119 ft | 4 kts | 135° |
| 2026-05-06 17:01 | 36.07989 | -115.13711 | 2119 ft | 4 kts | 135° |
| 2026-05-06 17:01 | 36.07959 | -115.13675 | 2121 ft | 9 kts | 136° |
| 2026-05-06 17:01 | 36.07902 | -115.13606 | 2122 ft | 15 kts | 135° |
| 2026-05-06 17:01 | 36.07835 | -115.13511 | 2127 ft | 14 kts | 117° |
| 2026-05-06 17:02 | 36.07827 | -115.13400 | 2126 ft | 13 kts | 89° |
| 2026-05-06 17:02 | 36.07828 | -115.13289 | 2124 ft | 13 kts | 89° |
| 2026-05-06 17:02 | 36.07830 | -115.13162 | 2121 ft | 16 kts | 89° |
| 2026-05-06 17:02 | 36.07831 | -115.13018 | 2120 ft | 17 kts | 90° |
| 2026-05-06 17:03 | 36.07827 | -115.12865 | 2119 ft | 19 kts | 93° |
| 2026-05-06 17:03 | 36.07827 | -115.12693 | 2115 ft | 22 kts | 88° |
| 2026-05-06 17:03 | 36.07829 | -115.12505 | 2116 ft | 21 kts | 89° |
| 2026-05-06 17:03 | 36.07829 | -115.12322 | 2118 ft | 21 kts | 92° |
| 2026-05-06 17:04 | 36.07764 | -115.12168 | 2120 ft | 19 kts | 130° |
| 2026-05-06 17:04 | 36.07657 | -115.12124 | 2125 ft | 16 kts | 191° |
| 2026-05-06 17:04 | 36.07642 | -115.12228 | 2124 ft | 16 kts | 273° |
| 2026-05-06 17:04 | 36.07642 | -115.12543 | 2123 ft | 69 kts | 270° |
| 2026-05-06 17:05 | 36.07640 | -115.13408 | 2123 ft | 129 kts | 270° |
| 2026-05-06 17:05 | 36.07636 | -115.14727 | 2133 ft | 175 kts | 268° |
| 2026-05-06 17:05 | 36.07639 | -115.16200 | 2805 ft | 167 kts | 268° |
| 2026-05-06 17:05 | 36.07639 | -115.17625 | 3466 ft | 166 kts | 270° |
| 2026-05-06 17:06 | 36.07638 | -115.19061 | 3959 ft | 171 kts | 270° |
| 2026-05-06 17:06 | 36.07636 | -115.20610 | 4200 ft | 189 kts | 271° |
| 2026-05-06 17:06 | 36.07634 | -115.22300 | 4494 ft | 205 kts | 271° |
| 2026-05-06 17:06 | 36.07630 | -115.24175 | 4680 ft | 230 kts | 271° |
| 2026-05-06 17:07 | 36.07741 | -115.26205 | 5148 ft | 241 kts | 287° |
| 2026-05-06 17:07 | 36.08597 | -115.27969 | 5769 ft | 245 kts | 321° |
| 2026-05-06 17:07 | 36.10115 | -115.28912 | 6412 ft | 249 kts | 349° |
| 2026-05-06 17:07 | 36.11841 | -115.29266 | 7099 ft | 252 kts | 350° |
| 2026-05-06 17:08 | 36.13568 | -115.29465 | 7960 ft | 249 kts | 5° |
| 2026-05-06 17:08 | 36.15225 | -115.28896 | 8731 ft | 251 kts | 27° |
| 2026-05-06 17:08 | 36.16598 | -115.27480 | 9194 ft | 269 kts | 52° |
| 2026-05-06 17:08 | 36.17504 | -115.25393 | 9785 ft | 280 kts | 66° |
| 2026-05-06 17:09 | 36.18191 | -115.23109 | 10390 ft | 289 kts | 66° |
| 2026-05-06 17:09 | 36.18946 | -115.20696 | 10562 ft | 312 kts | 66° |
| 2026-05-06 17:09 | 36.19536 | -115.18041 | 10699 ft | 338 kts | 79° |
| 2026-05-06 17:09 | 36.19639 | -115.14996 | 10905 ft | 359 kts | 87° |
| 2026-05-06 17:10 | 36.19636 | -115.11909 | 11435 ft | 365 kts | 87° |
| 2026-05-06 17:10 | 36.19629 | -115.08708 | 12034 ft | 369 kts | 87° |
| 2026-05-06 17:10 | 36.19624 | -115.05515 | 12653 ft | 373 kts | 87° |
| 2026-05-06 17:10 | 36.19623 | -115.02292 | 13284 ft | 376 kts | 87° |
| 2026-05-06 17:11 | 36.19623 | -114.99084 | 13920 ft | 379 kts | 87° |
| 2026-05-06 17:11 | 36.19623 | -114.95810 | 14491 ft | 382 kts | 87° |
| 2026-05-06 17:11 | 36.19710 | -114.92479 | 15068 ft | 382 kts | 80° |
| 2026-05-06 17:11 | 36.20231 | -114.89316 | 15617 ft | 380 kts | 70° |
| 2026-05-06 17:12 | 36.21227 | -114.86292 | 16184 ft | 379 kts | 59° |
| 2026-05-06 17:12 | 36.22657 | -114.83551 | 16734 ft | 379 kts | 49° |
| 2026-05-06 17:12 | 36.24343 | -114.81035 | 17282 ft | 381 kts | 48° |
| 2026-05-06 17:12 | 36.26039 | -114.78499 | 17857 ft | 383 kts | 49° |
| 2026-05-06 17:13 | 36.27736 | -114.75944 | 18399 ft | 385 kts | 49° |
| 2026-05-06 17:13 | 36.29439 | -114.73369 | 18857 ft | 387 kts | 49° |
| 2026-05-06 17:13 | 36.31151 | -114.70778 | 19311 ft | 390 kts | 49° |
| 2026-05-06 17:13 | 36.32874 | -114.68176 | 19753 ft | 392 kts | 49° |
| 2026-05-06 17:14 | 36.34609 | -114.65556 | 20199 ft | 394 kts | 49° |
| 2026-05-06 17:14 | 36.36388 | -114.62958 | 20618 ft | 396 kts | 44° |
| 2026-05-06 17:14 | 36.38442 | -114.60686 | 21029 ft | 396 kts | 36° |
| 2026-05-06 17:14 | 36.40639 | -114.58611 | 21456 ft | 398 kts | 36° |
| 2026-05-06 17:15 | 36.42851 | -114.56521 | 21857 ft | 401 kts | 36° |
| 2026-05-06 17:15 | 36.45072 | -114.54420 | 22253 ft | 403 kts | 36° |
| 2026-05-06 17:15 | 36.47307 | -114.52303 | 22643 ft | 405 kts | 36° |
| 2026-05-06 17:15 | 36.49549 | -114.50171 | 23009 ft | 407 kts | 36° |
| 2026-05-06 17:16 | 36.51801 | -114.48027 | 23392 ft | 409 kts | 36° |
| 2026-05-06 17:16 | 36.54067 | -114.45884 | 23739 ft | 409 kts | 34° |
| 2026-05-06 17:16 | 36.56468 | -114.43973 | 24049 ft | 410 kts | 31° |
| 2026-05-06 17:16 | 36.58898 | -114.42101 | 24352 ft | 411 kts | 31° |
| 2026-05-06 17:17 | 36.61332 | -114.40221 | 24664 ft | 412 kts | 31° |
| 2026-05-06 17:17 | 36.63771 | -114.38334 | 24986 ft | 413 kts | 31° |
| 2026-05-06 17:17 | 36.66217 | -114.36437 | 25268 ft | 415 kts | 31° |
| 2026-05-06 17:17 | 36.68669 | -114.34531 | 25555 ft | 416 kts | 31° |
| 2026-05-06 17:18 | 36.71123 | -114.32618 | 25829 ft | 417 kts | 31° |
| 2026-05-06 17:18 | 36.73586 | -114.30700 | 26100 ft | 418 kts | 31° |
| 2026-05-06 17:18 | 36.76054 | -114.28783 | 26373 ft | 419 kts | 31° |
| 2026-05-06 17:18 | 36.78529 | -114.26860 | 26623 ft | 419 kts | 31° |
| 2026-05-06 17:19 | 36.81007 | -114.24933 | 26877 ft | 420 kts | 31° |
| 2026-05-06 17:19 | 36.83455 | -114.23026 | 27123 ft | 421 kts | 31° |
| 2026-05-06 17:19 | 36.85976 | -114.21059 | 27351 ft | 422 kts | 31° |
| 2026-05-06 17:19 | 36.88464 | -114.19114 | 27643 ft | 421 kts | 31° |
| 2026-05-06 17:20 | 36.90944 | -114.17177 | 27968 ft | 419 kts | 31° |
| 2026-05-06 17:20 | 36.93412 | -114.15246 | 28303 ft | 418 kts | 31° |
| 2026-05-06 17:20 | 36.95867 | -114.13321 | 28651 ft | 416 kts | 31° |
| 2026-05-06 17:20 | 36.98314 | -114.11399 | 29008 ft | 414 kts | 31° |
| 2026-05-06 17:21 | 37.00721 | -114.09512 | 29347 ft | 413 kts | 31° |
| 2026-05-06 17:21 | 37.03181 | -114.07586 | 29694 ft | 411 kts | 31° |
| 2026-05-06 17:21 | 37.05568 | -114.05715 | 30034 ft | 410 kts | 31° |
| 2026-05-06 17:21 | 37.07979 | -114.03823 | 30325 ft | 409 kts | 31° |
| 2026-05-06 17:22 | 37.10384 | -114.01932 | 30602 ft | 407 kts | 31° |
| 2026-05-06 17:22 | 37.12781 | -114.00049 | 30883 ft | 406 kts | 31° |
| 2026-05-06 17:22 | 37.15166 | -113.98177 | 31160 ft | 405 kts | 31° |
| 2026-05-06 17:22 | 37.17549 | -113.96304 | 31444 ft | 403 kts | 31° |
| 2026-05-06 17:23 | 37.19918 | -113.94438 | 31730 ft | 402 kts | 31° |
| 2026-05-06 17:23 | 37.22282 | -113.92571 | 31958 ft | 401 kts | 31° |
| 2026-05-06 17:23 | 37.24648 | -113.90697 | 32015 ft | 403 kts | 31° |
| 2026-05-06 17:24 | 37.29400 | -113.86925 | 32028 ft | 405 kts | 31° |
| 2026-05-06 17:24 | 37.34162 | -113.83150 | 32028 ft | 404 kts | 31° |
| 2026-05-06 17:25 | 37.38925 | -113.79383 | 32026 ft | 404 kts | 32° |
| 2026-05-06 17:25 | 37.43679 | -113.75620 | 32033 ft | 403 kts | 31° |
| 2026-05-06 17:26 | 37.48416 | -113.71860 | 32033 ft | 403 kts | 31° |
| 2026-05-06 17:26 | 37.53157 | -113.68076 | 32025 ft | 403 kts | 31° |
| 2026-05-06 17:27 | 37.57895 | -113.64284 | 32030 ft | 404 kts | 31° |
| 2026-05-06 17:27 | 37.62641 | -113.60495 | 32036 ft | 403 kts | 31° |
| 2026-05-06 17:28 | 37.67450 | -113.56867 | 32051 ft | 402 kts | 24° |
| 2026-05-06 17:28 | 37.72818 | -113.54944 | 32037 ft | 403 kts | 12° |
| 2026-05-06 17:29 | 37.78327 | -113.53625 | 32040 ft | 403 kts | 12° |
| 2026-05-06 17:29 | 37.83836 | -113.52305 | 32059 ft | 403 kts | 12° |
| 2026-05-06 17:30 | 37.89343 | -113.50975 | 32052 ft | 402 kts | 12° |
| 2026-05-06 17:30 | 37.94783 | -113.49376 | 32056 ft | 401 kts | 19° |
| 2026-05-06 17:31 | 38.00046 | -113.47053 | 32052 ft | 401 kts | 19° |
| 2026-05-06 17:31 | 38.05321 | -113.44746 | 32057 ft | 401 kts | 19° |
| 2026-05-06 17:32 | 38.10589 | -113.42443 | 32069 ft | 400 kts | 19° |
| 2026-05-06 17:32 | 38.15853 | -113.40129 | 32070 ft | 400 kts | 19° |
| 2026-05-06 17:33 | 38.21113 | -113.37811 | 32064 ft | 400 kts | 19° |
| 2026-05-06 17:33 | 38.25486 | -113.35886 | 32080 ft | 400 kts | 19° |
| 2026-05-06 17:34 | 38.31592 | -113.33192 | 32098 ft | 400 kts | 19° |
| 2026-05-06 17:34 | 38.36842 | -113.30869 | 32113 ft | 400 kts | 19° |
| 2026-05-06 17:35 | 38.42093 | -113.28542 | 32119 ft | 399 kts | 19° |
| 2026-05-06 17:35 | 38.46492 | -113.26586 | 32123 ft | 399 kts | 19° |
| 2026-05-06 17:36 | 38.54328 | -113.23102 | 32124 ft | 399 kts | 19° |
| 2026-05-06 17:36 | 38.59574 | -113.20771 | 32117 ft | 399 kts | 19° |
| 2026-05-06 17:37 | 38.64857 | -113.18416 | 32107 ft | 399 kts | 19° |
| 2026-05-06 17:37 | 38.70062 | -113.16083 | 32065 ft | 399 kts | 19° |
| 2026-05-06 17:38 | 38.75307 | -113.13734 | 32067 ft | 399 kts | 19° |
| 2026-05-06 17:38 | 38.80553 | -113.11387 | 32079 ft | 399 kts | 19° |
| 2026-05-06 17:39 | 38.85790 | -113.09030 | 32096 ft | 399 kts | 19° |
| 2026-05-06 17:39 | 38.91017 | -113.06679 | 32088 ft | 398 kts | 19° |
| 2026-05-06 17:40 | 38.96234 | -113.04326 | 32080 ft | 397 kts | 19° |
| 2026-05-06 17:40 | 39.01446 | -113.01978 | 32081 ft | 397 kts | 19° |
| 2026-05-06 17:41 | 39.06649 | -112.99621 | 32073 ft | 396 kts | 19° |
| 2026-05-06 17:41 | 39.11853 | -112.97271 | 32066 ft | 396 kts | 19° |
| 2026-05-06 17:42 | 39.17051 | -112.94920 | 32061 ft | 396 kts | 19° |
| 2026-05-06 17:42 | 39.22244 | -112.92555 | 32061 ft | 396 kts | 19° |
| 2026-05-06 17:43 | 39.27435 | -112.90184 | 32060 ft | 396 kts | 19° |
| 2026-05-06 17:43 | 39.32631 | -112.87819 | 32055 ft | 396 kts | 19° |
| 2026-05-06 17:44 | 39.37818 | -112.85450 | 32099 ft | 396 kts | 19° |
| 2026-05-06 17:44 | 39.43012 | -112.83076 | 32104 ft | 396 kts | 19° |
| 2026-05-06 17:45 | 39.48210 | -112.80697 | 32103 ft | 396 kts | 18° |
| 2026-05-06 17:45 | 39.53414 | -112.78314 | 32100 ft | 397 kts | 18° |
| 2026-05-06 17:46 | 39.58617 | -112.75927 | 32122 ft | 397 kts | 18° |
| 2026-05-06 17:46 | 39.63818 | -112.73542 | 32107 ft | 396 kts | 18° |
| 2026-05-06 17:47 | 39.69011 | -112.71152 | 32090 ft | 396 kts | 18° |
| 2026-05-06 17:47 | 39.74191 | -112.68751 | 32074 ft | 396 kts | 18° |
| 2026-05-06 17:48 | 39.79384 | -112.66348 | 32071 ft | 396 kts | 18° |
| 2026-05-06 17:48 | 39.84586 | -112.63939 | 32076 ft | 397 kts | 18° |
| 2026-05-06 17:49 | 39.89751 | -112.61544 | 32075 ft | 397 kts | 18° |
| 2026-05-06 17:49 | 39.94993 | -112.59135 | 32082 ft | 396 kts | 15° |
| 2026-05-06 17:50 | 40.00393 | -112.58184 | 32085 ft | 396 kts | 3° |
| 2026-05-06 17:50 | 40.05906 | -112.57983 | 32088 ft | 396 kts | 3° |
| 2026-05-06 17:51 | 40.11417 | -112.57768 | 32121 ft | 396 kts | 3° |
| 2026-05-06 17:51 | 40.16931 | -112.57561 | 32125 ft | 396 kts | 2° |
| 2026-05-06 17:52 | 40.22451 | -112.57361 | 32125 ft | 397 kts | 2° |
| 2026-05-06 17:52 | 40.27974 | -112.57158 | 32122 ft | 397 kts | 3° |
| 2026-05-06 17:53 | 40.33502 | -112.56948 | 32109 ft | 397 kts | 2° |
| 2026-05-06 17:53 | 40.39021 | -112.56735 | 32104 ft | 396 kts | 3° |
| 2026-05-06 17:54 | 40.44541 | -112.56513 | 32107 ft | 397 kts | 2° |
| 2026-05-06 17:54 | 40.50060 | -112.56297 | 32113 ft | 396 kts | 2° |
| 2026-05-06 17:55 | 40.55577 | -112.56090 | 32112 ft | 396 kts | 2° |
| 2026-05-06 17:55 | 40.61086 | -112.55877 | 32117 ft | 396 kts | 2° |
| 2026-05-06 17:56 | 40.66600 | -112.55670 | 32108 ft | 396 kts | 2° |
| 2026-05-06 17:56 | 40.72115 | -112.55457 | 32109 ft | 396 kts | 2° |
| 2026-05-06 17:57 | 40.77630 | -112.55248 | 32119 ft | 397 kts | 2° |
| 2026-05-06 17:57 | 40.83146 | -112.55037 | 32122 ft | 396 kts | 2° |
| 2026-05-06 17:58 | 40.88624 | -112.54822 | 32121 ft | 397 kts | 2° |
| 2026-05-06 17:58 | 40.94133 | -112.54604 | 32123 ft | 397 kts | 2° |
| 2026-05-06 17:59 | 40.99654 | -112.54391 | 32133 ft | 397 kts | 2° |
| 2026-05-06 17:59 | 41.05171 | -112.54176 | 32128 ft | 397 kts | 2° |
| 2026-05-06 18:00 | 41.10683 | -112.53960 | 32119 ft | 396 kts | 2° |
| 2026-05-06 18:00 | 41.16199 | -112.53745 | 32119 ft | 396 kts | 2° |
| 2026-05-06 18:01 | 41.21712 | -112.53526 | 32115 ft | 396 kts | 2° |
| 2026-05-06 18:01 | 41.27222 | -112.53311 | 32118 ft | 396 kts | 2° |
| 2026-05-06 18:02 | 41.32731 | -112.52905 | 32121 ft | 396 kts | 4° |
| 2026-05-06 18:02 | 41.38230 | -112.52367 | 32120 ft | 396 kts | 4° |
| 2026-05-06 18:03 | 41.43734 | -112.51846 | 32121 ft | 397 kts | 4° |
| 2026-05-06 18:03 | 41.49239 | -112.51364 | 32126 ft | 396 kts | 4° |
| 2026-05-06 18:04 | 41.54744 | -112.50884 | 32118 ft | 396 kts | 4° |
| 2026-05-06 18:04 | 41.60240 | -112.50402 | 32116 ft | 396 kts | 4° |
| 2026-05-06 18:05 | 41.65750 | -112.49918 | 32125 ft | 397 kts | 4° |
| 2026-05-06 18:05 | 41.71262 | -112.49437 | 32125 ft | 397 kts | 4° |
| 2026-05-06 18:06 | 41.76776 | -112.48957 | 32129 ft | 397 kts | 4° |
| 2026-05-06 18:06 | 41.82294 | -112.48473 | 32127 ft | 397 kts | 4° |
| 2026-05-06 18:07 | 41.87805 | -112.47982 | 32126 ft | 397 kts | 4° |
| 2026-05-06 18:07 | 41.93320 | -112.47498 | 32127 ft | 397 kts | 4° |
| 2026-05-06 18:08 | 41.98832 | -112.47013 | 32129 ft | 397 kts | 3° |
| 2026-05-06 18:08 | 42.04344 | -112.46522 | 32128 ft | 397 kts | 4° |
| 2026-05-06 18:09 | 42.09849 | -112.46027 | 32129 ft | 397 kts | 3° |
| 2026-05-06 18:09 | 42.15363 | -112.45542 | 32148 ft | 399 kts | 3° |
| 2026-05-06 18:10 | 42.20846 | -112.44736 | 32142 ft | 397 kts | 12° |
| 2026-05-06 18:10 | 42.26132 | -112.42544 | 32140 ft | 397 kts | 15° |
| 2026-05-06 18:11 | 42.30518 | -112.40696 | 32142 ft | 397 kts | 15° |
| 2026-05-06 18:11 | 42.36687 | -112.38100 | 32142 ft | 397 kts | 15° |
| 2026-05-06 18:12 | 42.41973 | -112.35876 | 32141 ft | 398 kts | 15° |
| 2026-05-06 18:12 | 42.47258 | -112.33644 | 32137 ft | 398 kts | 15° |
| 2026-05-06 18:13 | 42.52543 | -112.31399 | 32143 ft | 398 kts | 15° |
| 2026-05-06 18:13 | 42.57799 | -112.29171 | 32150 ft | 398 kts | 15° |
| 2026-05-06 18:14 | 42.63121 | -112.26908 | 32152 ft | 398 kts | 15° |
| 2026-05-06 18:14 | 42.68370 | -112.24673 | 32151 ft | 398 kts | 15° |
| 2026-05-06 18:15 | 42.73652 | -112.22418 | 32148 ft | 398 kts | 15° |
| 2026-05-06 18:15 | 42.78931 | -112.20165 | 32151 ft | 398 kts | 15° |
| 2026-05-06 18:16 | 42.84214 | -112.17896 | 32158 ft | 398 kts | 15° |
| 2026-05-06 18:16 | 42.89495 | -112.15626 | 32176 ft | 397 kts | 15° |
| 2026-05-06 18:17 | 42.94770 | -112.13357 | 32182 ft | 398 kts | 15° |
| 2026-05-06 18:17 | 43.00046 | -112.11090 | 32178 ft | 398 kts | 15° |
| 2026-05-06 18:18 | 43.05320 | -112.08812 | 32174 ft | 397 kts | 14° |
| 2026-05-06 18:18 | 43.10599 | -112.06537 | 32173 ft | 397 kts | 14° |
| 2026-05-06 18:19 | 43.15871 | -112.04266 | 32172 ft | 397 kts | 15° |
| 2026-05-06 18:19 | 43.20250 | -112.02369 | 32212 ft | 396 kts | 14° |
| 2026-05-06 18:20 | 43.25500 | -112.00085 | 32193 ft | 396 kts | 14° |
| 2026-05-06 18:20 | 43.30751 | -111.97796 | 32194 ft | 396 kts | 14° |
| 2026-05-06 18:21 | 43.36001 | -111.95510 | 32199 ft | 396 kts | 14° |
| 2026-05-06 18:21 | 43.41253 | -111.93210 | 32201 ft | 396 kts | 14° |
| 2026-05-06 18:22 | 43.46507 | -111.90916 | 32192 ft | 396 kts | 14° |
| 2026-05-06 18:22 | 43.51756 | -111.88614 | 32186 ft | 396 kts | 14° |
| 2026-05-06 18:23 | 43.57012 | -111.86302 | 32183 ft | 396 kts | 14° |
| 2026-05-06 18:23 | 43.62265 | -111.84000 | 32175 ft | 396 kts | 14° |
| 2026-05-06 18:24 | 43.67514 | -111.81690 | 32181 ft | 396 kts | 14° |
| 2026-05-06 18:24 | 43.72772 | -111.79366 | 32180 ft | 397 kts | 14° |
| 2026-05-06 18:25 | 43.78030 | -111.77035 | 32185 ft | 397 kts | 14° |
| 2026-05-06 18:25 | 43.83286 | -111.74703 | 32215 ft | 396 kts | 14° |
| 2026-05-06 18:26 | 43.88533 | -111.72379 | 32197 ft | 396 kts | 14° |
| 2026-05-06 18:26 | 43.93782 | -111.70037 | 32193 ft | 396 kts | 14° |
| 2026-05-06 18:27 | 43.99031 | -111.67695 | 32187 ft | 397 kts | 14° |
| 2026-05-06 18:27 | 44.04198 | -111.64953 | 32181 ft | 400 kts | 20° |
| 2026-05-06 18:28 | 44.09268 | -111.61767 | 32149 ft | 400 kts | 20° |
| 2026-05-06 18:28 | 44.14339 | -111.58573 | 32172 ft | 401 kts | 20° |
| 2026-05-06 18:29 | 44.19385 | -111.55390 | 32155 ft | 401 kts | 20° |
| 2026-05-06 18:29 | 44.24466 | -111.52197 | 32151 ft | 401 kts | 20° |
| 2026-05-06 18:30 | 44.29549 | -111.48995 | 32146 ft | 401 kts | 20° |
| 2026-05-06 18:30 | 44.34632 | -111.45785 | 32144 ft | 401 kts | 20° |
| 2026-05-06 18:31 | 44.39711 | -111.42564 | 32176 ft | 401 kts | 20° |
| 2026-05-06 18:31 | 44.44788 | -111.39336 | 32169 ft | 400 kts | 20° |
| 2026-05-06 18:32 | 44.49859 | -111.36112 | 32170 ft | 400 kts | 20° |
| 2026-05-06 18:32 | 44.52388 | -111.34499 | 31491 ft | 400 kts | 20° |
| 2026-05-06 18:32 | 44.54954 | -111.32864 | 30139 ft | 410 kts | 20° |
| 2026-05-06 18:33 | 44.57577 | -111.31196 | 28902 ft | 414 kts | 20° |
| 2026-05-06 18:33 | 44.60191 | -111.29524 | 27937 ft | 412 kts | 20° |
| 2026-05-06 18:33 | 44.62799 | -111.27852 | 26924 ft | 412 kts | 20° |
| 2026-05-06 18:33 | 44.65406 | -111.26178 | 25911 ft | 413 kts | 20° |
| 2026-05-06 18:34 | 44.67993 | -111.24512 | 25309 ft | 405 kts | 20° |
| 2026-05-06 18:34 | 44.70539 | -111.22869 | 24602 ft | 401 kts | 20° |
| 2026-05-06 18:34 | 44.73062 | -111.21247 | 23922 ft | 397 kts | 20° |
| 2026-05-06 18:34 | 44.75562 | -111.19644 | 23174 ft | 393 kts | 20° |
| 2026-05-06 18:35 | 44.78034 | -111.18060 | 22547 ft | 387 kts | 20° |
| 2026-05-06 18:35 | 44.80471 | -111.16493 | 21924 ft | 382 kts | 20° |
| 2026-05-06 18:35 | 44.82873 | -111.14945 | 21322 ft | 377 kts | 21° |
| 2026-05-06 18:35 | 44.85245 | -111.13407 | 20748 ft | 373 kts | 21° |
| 2026-05-06 18:36 | 44.87591 | -111.11888 | 20172 ft | 370 kts | 21° |
| 2026-05-06 18:36 | 44.89925 | -111.10379 | 19616 ft | 367 kts | 21° |
| 2026-05-06 18:36 | 44.92242 | -111.08884 | 19073 ft | 365 kts | 21° |
| 2026-05-06 18:36 | 44.94545 | -111.07399 | 18524 ft | 364 kts | 21° |
| 2026-05-06 18:37 | 44.96849 | -111.05910 | 18063 ft | 359 kts | 21° |
| 2026-05-06 18:37 | 44.99070 | -111.04459 | 17926 ft | 345 kts | 21° |
| 2026-05-06 18:37 | 45.01201 | -111.03063 | 17776 ft | 332 kts | 21° |
| 2026-05-06 18:37 | 45.03262 | -111.01716 | 17646 ft | 321 kts | 20° |
| 2026-05-06 18:38 | 45.05248 | -111.00420 | 17504 ft | 308 kts | 20° |
| 2026-05-06 18:38 | 45.07165 | -110.99167 | 17368 ft | 299 kts | 20° |
| 2026-05-06 18:38 | 45.09034 | -110.97948 | 17152 ft | 293 kts | 20° |
| 2026-05-06 18:38 | 45.10875 | -110.96751 | 16910 ft | 290 kts | 20° |
| 2026-05-06 18:39 | 45.12760 | -110.95877 | 17002 ft | 285 kts | 7° |
| 2026-05-06 18:39 | 45.14723 | -110.95683 | 16920 ft | 283 kts | 354° |
| 2026-05-06 18:39 | 45.16648 | -110.96167 | 16730 ft | 281 kts | 346° |
| 2026-05-06 18:40 | 45.20443 | -110.97453 | 16376 ft | 280 kts | 347° |
| 2026-05-06 18:40 | 45.22340 | -110.98082 | 16209 ft | 280 kts | 347° |
| 2026-05-06 18:40 | 45.24228 | -110.98708 | 16030 ft | 278 kts | 347° |
| 2026-05-06 18:40 | 45.26110 | -110.99333 | 15866 ft | 278 kts | 346° |
| 2026-05-06 18:41 | 45.27996 | -110.99958 | 15687 ft | 278 kts | 346° |
| 2026-05-06 18:41 | 45.29887 | -111.00588 | 15504 ft | 278 kts | 346° |
| 2026-05-06 18:41 | 45.31771 | -111.01213 | 15341 ft | 278 kts | 346° |
| 2026-05-06 18:41 | 45.33659 | -111.01842 | 15175 ft | 278 kts | 346° |
| 2026-05-06 18:42 | 45.35532 | -111.02468 | 15003 ft | 277 kts | 346° |
| 2026-05-06 18:42 | 45.37405 | -111.03096 | 14830 ft | 276 kts | 346° |
| 2026-05-06 18:42 | 45.39267 | -111.03719 | 14656 ft | 274 kts | 346° |
| 2026-05-06 18:42 | 45.41129 | -111.04339 | 14485 ft | 275 kts | 346° |
| 2026-05-06 18:43 | 45.43001 | -111.04963 | 14314 ft | 278 kts | 346° |
| 2026-05-06 18:43 | 45.44882 | -111.05596 | 14146 ft | 278 kts | 345° |
| 2026-05-06 18:43 | 45.46767 | -111.06232 | 13971 ft | 278 kts | 346° |
| 2026-05-06 18:43 | 45.48647 | -111.06863 | 13786 ft | 277 kts | 346° |
| 2026-05-06 18:44 | 45.50525 | -111.07497 | 13636 ft | 277 kts | 346° |
| 2026-05-06 18:44 | 45.52398 | -111.08126 | 13446 ft | 276 kts | 345° |
| 2026-05-06 18:44 | 45.54267 | -111.08753 | 13265 ft | 276 kts | 345° |
| 2026-05-06 18:44 | 45.56131 | -111.09379 | 13100 ft | 275 kts | 345° |
| 2026-05-06 18:45 | 45.57995 | -111.10008 | 12905 ft | 275 kts | 345° |
| 2026-05-06 18:45 | 45.59855 | -111.10640 | 12703 ft | 275 kts | 345° |
| 2026-05-06 18:45 | 45.61686 | -111.11263 | 12495 ft | 273 kts | 345° |
| 2026-05-06 18:45 | 45.63426 | -111.12277 | 12294 ft | 270 kts | 323° |
| 2026-05-06 18:46 | 45.64660 | -111.14281 | 12097 ft | 272 kts | 303° |
| 2026-05-06 18:46 | 45.65705 | -111.16522 | 11906 ft | 270 kts | 311° |
| 2026-05-06 18:46 | 45.66973 | -111.18497 | 11722 ft | 269 kts | 314° |
| 2026-05-06 18:46 | 45.68250 | -111.20436 | 11535 ft | 265 kts | 314° |
| 2026-05-06 18:47 | 45.69499 | -111.22315 | 11408 ft | 256 kts | 315° |
| 2026-05-06 18:47 | 45.70710 | -111.24122 | 11249 ft | 247 kts | 315° |
| 2026-05-06 18:47 | 45.71881 | -111.25862 | 11117 ft | 238 kts | 315° |
| 2026-05-06 18:47 | 45.73006 | -111.27530 | 11003 ft | 229 kts | 315° |
| 2026-05-06 18:48 | 45.74092 | -111.29141 | 10852 ft | 221 kts | 315° |
| 2026-05-06 18:48 | 45.75154 | -111.30717 | 10582 ft | 219 kts | 314° |
| 2026-05-06 18:48 | 45.76213 | -111.32287 | 10295 ft | 219 kts | 314° |
| 2026-05-06 18:48 | 45.77267 | -111.33850 | 10022 ft | 218 kts | 314° |
| 2026-05-06 18:49 | 45.78310 | -111.35399 | 9753 ft | 215 kts | 315° |
| 2026-05-06 18:49 | 45.79347 | -111.36938 | 9405 ft | 215 kts | 314° |
| 2026-05-06 18:49 | 45.80389 | -111.38486 | 9076 ft | 216 kts | 314° |
| 2026-05-06 18:49 | 45.81435 | -111.40042 | 8744 ft | 217 kts | 313° |
| 2026-05-06 18:50 | 45.82485 | -111.41607 | 8373 ft | 219 kts | 313° |
| 2026-05-06 18:50 | 45.83560 | -111.43173 | 8046 ft | 220 kts | 319° |
| 2026-05-06 18:50 | 45.84919 | -111.44048 | 7914 ft | 216 kts | 352° |
| 2026-05-06 18:50 | 45.86360 | -111.43647 | 7796 ft | 213 kts | 26° |
| 2026-05-06 18:51 | 45.87536 | -111.42333 | 7442 ft | 216 kts | 40° |
| 2026-05-06 18:51 | 45.88625 | -111.40851 | 7211 ft | 212 kts | 41° |
| 2026-05-06 18:51 | 45.89659 | -111.39351 | 7212 ft | 212 kts | 50° |
| 2026-05-06 18:51 | 45.90362 | -111.37501 | 7218 ft | 212 kts | 70° |
| 2026-05-06 18:52 | 45.90578 | -111.35389 | 7205 ft | 217 kts | 91° |
| 2026-05-06 18:52 | 45.90250 | -111.33266 | 7218 ft | 219 kts | 114° |
| 2026-05-06 18:52 | 45.89420 | -111.31474 | 7224 ft | 214 kts | 136° |
| 2026-05-06 18:52 | 45.88359 | -111.29994 | 7105 ft | 208 kts | 139° |
| 2026-05-06 18:53 | 45.87365 | -111.28595 | 6909 ft | 194 kts | 139° |
| 2026-05-06 18:53 | 45.86411 | -111.27259 | 6668 ft | 189 kts | 140° |
| 2026-05-06 18:53 | 45.85491 | -111.25974 | 6354 ft | 177 kts | 137° |
| 2026-05-06 18:53 | 45.84663 | -111.24813 | 6060 ft | 163 kts | 137° |
| 2026-05-06 18:54 | 45.83861 | -111.23691 | 5827 ft | 156 kts | 136° |
| 2026-05-06 18:54 | 45.83101 | -111.22634 | 5541 ft | 152 kts | 135° |
| 2026-05-06 18:54 | 45.82350 | -111.21588 | 5356 ft | 150 kts | 135° |
| 2026-05-06 18:54 | 45.81592 | -111.20522 | 5162 ft | 151 kts | 135° |
| 2026-05-06 18:55 | 45.80852 | -111.19481 | 4986 ft | 151 kts | 136° |
| 2026-05-06 18:55 | 45.80097 | -111.18430 | 4844 ft | 152 kts | 136° |
| 2026-05-06 18:55 | 45.79335 | -111.17373 | 4622 ft | 152 kts | 136° |
| 2026-05-06 18:55 | 45.78577 | -111.16320 | 4450 ft | 148 kts | 136° |
| 2026-05-06 18:56 | 45.77990 | -111.15508 | 4454 ft | 77 kts | 136° |
| 2026-05-06 18:56 | 45.77692 | -111.15096 | 4456 ft | 49 kts | 136° |
| 2026-05-06 18:56 | 45.77542 | -111.14921 | 4459 ft | 17 kts | 181° |
| 2026-05-06 18:56 | 45.77449 | -111.15017 | 4458 ft | 17 kts | 226° |
| 2026-05-06 18:57 | 45.77433 | -111.15143 | 4458 ft | 14 kts | 307° |
| 2026-05-06 18:57 | 45.77507 | -111.15247 | 4458 ft | 16 kts | 315° |
| 2026-05-06 18:57 | 45.77587 | -111.15360 | 4457 ft | 17 kts | 316° |
| 2026-05-06 18:57 | 45.77675 | -111.15481 | 4457 ft | 18 kts | 316° |
| 2026-05-06 18:58 | 45.77768 | -111.15611 | 4456 ft | 18 kts | 315° |
| 2026-05-06 18:58 | 45.77832 | -111.15726 | 4456 ft | 12 kts | 277° |
| 2026-05-06 18:58 | 45.77790 | -111.15815 | 4458 ft | 10 kts | 221° |
| 2026-05-06 18:58 | 45.77771 | -111.15871 | 4459 ft | 4 kts | 257° |
| 2026-05-06 18:59 | 45.77766 | -111.15898 | 4459 ft | 1 kts | 252° |
| 2026-05-06 18:59 | 45.77766 | -111.15899 | 4459 ft | 0 kts | 252° |
| 2026-05-06 18:59 | 45.78491 | -111.16202 | 4450 ft | 132 kts | 136° |
| 2026-05-06 19:00 | 45.82347 | -111.21585 | 5353 ft | 146 kts | 135° |
| 2026-05-06 19:01 | 45.82272 | -111.21480 | 5339 ft | 148 kts | 135° |
| 2026-05-06 19:01 | 45.81497 | -111.20387 | 5124 ft | 148 kts | 136° |
| 2026-05-06 19:01 | 45.80727 | -111.19308 | 4950 ft | 148 kts | 136° |
| 2026-05-06 19:01 | 45.79994 | -111.18285 | 4808 ft | 149 kts | 136° |
| 2026-05-06 19:02 | 45.79304 | -111.17329 | 4634 ft | 151 kts | 136° |
| 2026-05-06 19:02 | 45.78490 | -111.16200 | 4458 ft | 141 kts | 136° |
| 2026-05-06 19:02 | 45.77960 | -111.15468 | 4455 ft | 66 kts | 136° |
| 2026-05-06 19:02 | 45.80860 | -111.19493 | 4977 ft | 145 kts | 136° |
| 2026-05-06 19:03 | 45.81633 | -111.20580 | 5155 ft | 150 kts | 135° |
| 2026-05-06 19:03 | 45.80903 | -111.19553 | 4986 ft | 147 kts | 136° |
| 2026-05-06 19:03 | 45.80138 | -111.18488 | 4868 ft | 151 kts | 136° |
| 2026-05-06 19:03 | 45.79389 | -111.17448 | 4649 ft | 152 kts | 136° |
| 2026-05-06 19:04 | 45.84103 | -111.24030 | 5889 ft | 157 kts | 136° |
| 2026-05-06 19:04 | 45.83873 | -111.23708 | 5805 ft | 155 kts | 136° |
| 2026-05-06 19:04 | 45.83177 | -111.22740 | 5539 ft | 154 kts | 135° |
| 2026-05-06 19:04 | 45.82461 | -111.21744 | 5344 ft | 150 kts | 135° |
| 2026-05-06 19:05 | 45.81732 | -111.20720 | 5183 ft | 148 kts | 135° |
| 2026-05-06 19:05 | 45.81020 | -111.19715 | 5011 ft | 145 kts | 136° |
| 2026-05-06 19:05 | 45.80290 | -111.18701 | 4868 ft | 145 kts | 136° |
| 2026-05-06 19:05 | 45.79574 | -111.17703 | 4683 ft | 149 kts | 137° |
| 2026-05-06 19:06 | 45.79078 | -111.17013 | 4590 ft | 146 kts | 135° |
| 2026-05-06 19:06 | 45.78137 | -111.15710 | 4453 ft | 100 kts | 136° |
| 2026-05-06 19:06 | 45.77885 | -111.15364 | 4455 ft | 55 kts | 136° |
| 2026-05-06 19:06 | 45.77827 | -111.15757 | 4457 ft | 6 kts | 250° |
| 2026-05-06 19:07 | 45.77766 | -111.15899 | 4459 ft | 0 kts | 252° |